RS-0013 weather

Vršački Ritovi Airstrip
South Banat, Serbia

Public forecast

Using degrees Celsius for public forecast. Weather courtesy of forecast.io.

Closest aviation weather report (METAR) to Vršački Ritovi Airstrip

Closest report is Vršac International Airport, 5.3 nm (9.9 km) E. Retrieved 2019/12/11 02:30 UTC (10 minutes ago):

LYVR 110230Z AUTO 28005KT 9999 OVC008 04/03 Q1019

Closest aviation forecast (TAF) to Vršački Ritovi Airstrip

Closest forecast is Vršac International Airport, 5.3 nm (9.9 km) E. Retrieved 2019-12-11 00:00 UTC (3 hours ago):

TAF LYVR 102300Z 1100/1124 34006KT 9999 OVC010 OVC027 TX05/1100Z TN01/1123Z TEMPO 1100/1107 5000 BR OVC005 OVC023 BECMG 1117/1119 11010KT SCT015 BKN030